createdAt,value
2018-05-21T00:00:48.647Z,19.76
2018-05-21T00:03:17.134Z,19.83
2018-05-21T00:05:45.469Z,19.75
2018-05-21T00:08:13.985Z,19.70
2018-05-21T00:10:42.443Z,19.66
2018-05-21T00:13:10.932Z,19.65
2018-05-21T00:15:40.139Z,19.67
2018-05-21T00:18:09.370Z,19.69
2018-05-21T00:20:37.694Z,19.71
2018-05-21T00:23:06.027Z,19.71
2018-05-21T00:25:34.609Z,19.71
2018-05-21T00:28:03.292Z,19.66
2018-05-21T00:30:31.702Z,19.61
2018-05-21T00:32:59.993Z,19.51
2018-05-21T00:35:28.419Z,19.45
2018-05-21T00:37:57.148Z,19.43
2018-05-21T00:40:25.560Z,19.43
2018-05-21T00:42:54.774Z,19.43
2018-05-21T00:45:23.075Z,19.41
2018-05-21T00:47:51.617Z,19.35
2018-05-21T00:50:20.837Z,19.18
2018-05-21T00:52:49.268Z,19.18
2018-05-21T00:55:35.482Z,19.17
2018-05-21T00:58:04.701Z,18.98
2018-05-21T01:00:32.997Z,18.90
2018-05-21T01:03:01.363Z,18.85
2018-05-21T01:05:29.664Z,18.90
2018-05-21T01:07:58.059Z,18.90
2018-05-21T01:10:26.370Z,18.95
2018-05-21T01:12:55.947Z,18.99
2018-05-21T01:15:24.504Z,19.01
2018-05-21T01:17:53.084Z,19.01
2018-05-21T01:20:21.591Z,18.99
2018-05-21T01:22:50.015Z,18.93
2018-05-21T01:25:18.408Z,18.91
2018-05-21T01:27:46.757Z,18.89
2018-05-21T01:30:15.928Z,18.90
2018-05-21T01:32:44.409Z,18.83
2018-05-21T01:35:12.915Z,18.83
2018-05-21T01:37:41.315Z,18.79
2018-05-21T01:40:09.906Z,18.73
2018-05-21T01:42:38.275Z,18.65
2018-05-21T01:45:07.367Z,18.38
2018-05-21T01:47:36.457Z,18.24
2018-05-21T01:50:05.563Z,18.08
2018-05-21T01:52:34.653Z,18.01
2018-05-21T01:55:05.018Z,17.97
2018-05-21T01:57:33.395Z,17.95
2018-05-21T02:00:01.850Z,17.95
2018-05-21T02:02:30.435Z,18.01
2018-05-21T02:04:58.873Z,17.89
2018-05-21T02:07:28.192Z,17.87
2018-05-21T02:09:57.348Z,17.86
2018-05-21T02:12:25.673Z,17.84
2018-05-21T02:14:54.938Z,17.77
2018-05-21T02:17:23.279Z,17.69
2018-05-21T02:19:51.691Z,17.73
2018-05-21T02:22:20.115Z,17.76
2018-05-21T02:24:49.418Z,17.68
2018-05-21T02:27:17.871Z,17.62
2018-05-21T02:29:46.319Z,17.63
2018-05-21T02:32:14.690Z,17.59
2018-05-21T02:34:43.163Z,17.54
2018-05-21T02:37:11.596Z,17.56
2018-05-21T02:39:40.093Z,17.49
2018-05-21T02:42:08.923Z,17.46
2018-05-21T02:44:37.553Z,17.47
2018-05-21T02:47:06.763Z,17.48
2018-05-21T02:49:36.105Z,17.40
2018-05-21T02:52:04.443Z,17.38
2018-05-21T02:54:33.573Z,17.37
2018-05-21T02:57:02.022Z,17.32
2018-05-21T02:59:31.129Z,17.17
2018-05-21T03:01:59.443Z,17.08
2018-05-21T03:04:28.094Z,17.18
2018-05-21T03:06:56.625Z,17.15
2018-05-21T03:09:25.145Z,17.01
2018-05-21T03:11:53.579Z,17.03
2018-05-21T03:14:22.378Z,17.03
2018-05-21T03:16:51.017Z,17.14
2018-05-21T03:19:19.767Z,17.10
2018-05-21T03:21:48.167Z,17.00
2018-05-21T03:24:16.528Z,17.06
2018-05-21T03:26:45.769Z,16.92
2018-05-21T03:29:14.990Z,16.91
2018-05-21T03:31:43.276Z,17.00
2018-05-21T03:34:11.615Z,16.96
2018-05-21T03:36:40.090Z,16.94
2018-05-21T03:39:08.738Z,16.84
2018-05-21T03:41:37.969Z,16.74
2018-05-21T03:44:06.334Z,16.75
2018-05-21T03:46:35.479Z,16.83
2018-05-21T03:49:03.913Z,16.82
2018-05-21T03:51:33.131Z,16.86
2018-05-21T03:54:01.618Z,16.94
2018-05-21T03:56:30.316Z,16.94
2018-05-21T03:59:16.214Z,16.94
2018-05-21T04:02:02.496Z,16.84
2018-05-21T04:04:30.928Z,16.94
2018-05-21T04:06:59.319Z,16.86
2018-05-21T04:09:27.805Z,16.82
2018-05-21T04:11:56.171Z,16.86
2018-05-21T04:14:25.367Z,16.84
2018-05-21T04:16:54.485Z,16.71
2018-05-21T04:19:22.785Z,16.88
2018-05-21T04:21:51.370Z,16.71
2018-05-21T04:24:19.795Z,16.91
2018-05-21T04:26:48.674Z,16.84
2018-05-21T04:29:17.715Z,16.72
2018-05-21T04:31:46.093Z,16.67
2018-05-21T04:34:14.476Z,16.58
2018-05-21T04:36:42.920Z,16.65
2018-05-21T04:39:11.416Z,16.62
2018-05-21T04:41:40.564Z,16.72
2018-05-21T04:44:08.930Z,16.71
2018-05-21T04:46:37.255Z,16.55
2018-05-21T04:49:05.581Z,16.49
2018-05-21T04:51:34.044Z,16.59
2018-05-21T04:54:02.445Z,16.71
2018-05-21T04:56:30.794Z,16.68
2018-05-21T04:58:59.599Z,16.74
2018-05-21T05:01:27.914Z,16.70
2018-05-21T05:03:56.439Z,16.67
2018-05-21T05:06:25.055Z,16.80
2018-05-21T05:08:53.515Z,16.95
2018-05-21T05:11:21.830Z,17.05
2018-05-21T05:13:50.445Z,17.07
2018-05-21T05:16:19.945Z,17.01
2018-05-21T05:18:48.349Z,17.14
2018-05-21T05:21:16.808Z,17.19
2018-05-21T05:23:45.159Z,17.19
2018-05-21T05:26:13.615Z,17.31
2018-05-21T05:28:42.185Z,17.29
2018-05-21T05:31:10.535Z,17.39
2018-05-21T05:33:39.007Z,17.43
2018-05-21T05:36:08.139Z,17.57
2018-05-21T05:38:36.524Z,17.54
2018-05-21T05:41:04.984Z,17.62
2018-05-21T05:43:34.243Z,17.72
2018-05-21T05:46:02.909Z,17.81
2018-05-21T05:48:31.288Z,17.85
2018-05-21T05:50:59.625Z,17.83
2018-05-21T05:53:28.070Z,17.83
2018-05-21T05:55:56.614Z,17.94
2018-05-21T05:58:25.131Z,18.03
2018-05-21T06:00:53.658Z,18.06
2018-05-21T06:03:22.144Z,17.97
2018-05-21T06:05:50.461Z,18.05
2018-05-21T06:08:18.911Z,18.06
2018-05-21T06:10:47.259Z,18.23
2018-05-21T06:13:16.441Z,18.40
2018-05-21T06:15:45.531Z,18.44
2018-05-21T06:18:13.990Z,18.63
2018-05-21T06:20:42.324Z,18.57
2018-05-21T06:23:10.643Z,18.59
2018-05-21T06:25:38.984Z,18.69
2018-05-21T06:28:07.319Z,18.67
2018-05-21T06:30:35.680Z,18.68
2018-05-21T06:33:04.175Z,18.65
2018-05-21T06:35:32.823Z,18.72
2018-05-21T06:38:01.155Z,18.81
2018-05-21T06:40:30.290Z,18.91
2018-05-21T06:42:58.705Z,18.90
2018-05-21T06:45:27.211Z,18.87
2018-05-21T06:47:56.404Z,19.02
2018-05-21T06:50:25.500Z,19.08
2018-05-21T06:52:54.223Z,19.22
2018-05-21T06:55:22.671Z,19.29
2018-05-21T06:57:51.045Z,19.26
2018-05-21T07:00:19.374Z,19.39
2018-05-21T07:02:47.741Z,19.37
2018-05-21T07:05:16.170Z,19.46
2018-05-21T07:07:44.561Z,19.54
2018-05-21T07:10:13.904Z,19.69
2018-05-21T07:12:42.225Z,19.74
2018-05-21T07:15:13.279Z,19.84
2018-05-21T07:17:43.599Z,19.92
2018-05-21T07:20:12.147Z,20.02
2018-05-21T07:22:40.516Z,20.07
2018-05-21T07:25:08.854Z,20.15
2018-05-21T07:27:38.064Z,20.17
2018-05-21T07:30:06.715Z,20.26
2018-05-21T07:32:35.178Z,20.32
2018-05-21T07:35:03.535Z,20.44
2018-05-21T07:37:31.890Z,20.51
2018-05-21T07:40:00.399Z,20.58
2018-05-21T07:42:29.126Z,20.69
2018-05-21T07:44:58.247Z,20.75
2018-05-21T07:47:27.342Z,20.89
2018-05-21T07:49:57.664Z,21.03
2018-05-21T07:52:28.105Z,21.09
2018-05-21T07:54:56.493Z,21.11
2018-05-21T07:57:24.876Z,21.24
2018-05-21T07:59:53.358Z,21.38
2018-05-21T08:02:21.778Z,21.50
2018-05-21T08:04:50.125Z,21.50
2018-05-21T08:07:18.464Z,21.58
2018-05-21T08:09:47.357Z,21.73
2018-05-21T08:12:16.466Z,21.88
2018-05-21T08:14:44.967Z,22.01
2018-05-21T08:17:13.220Z,22.02
2018-05-21T08:19:41.659Z,22.09
2018-05-21T08:22:11.015Z,22.07
2018-05-21T08:24:39.196Z,22.11
2018-05-21T08:27:07.657Z,22.19
2018-05-21T08:29:36.196Z,22.34
2018-05-21T08:32:04.767Z,22.37
2018-05-21T08:34:33.410Z,22.46
2018-05-21T08:37:02.040Z,22.47
2018-05-21T08:39:30.383Z,22.47
2018-05-21T08:41:58.706Z,22.45
2018-05-21T08:44:28.089Z,22.58
2018-05-21T08:46:56.580Z,22.80
2018-05-21T08:49:25.901Z,22.99
2018-05-21T08:51:55.007Z,23.15
2018-05-21T08:54:24.190Z,23.17
2018-05-21T08:56:54.496Z,23.27
2018-05-21T08:59:22.973Z,23.36
2018-05-21T09:01:52.069Z,23.47
2018-05-21T09:04:22.051Z,23.56
2018-05-21T09:06:50.409Z,23.55
2018-05-21T09:09:18.976Z,23.62
2018-05-21T09:11:48.401Z,23.70
2018-05-21T09:14:16.802Z,23.68
2018-05-21T09:16:45.301Z,23.71
2018-05-21T09:19:13.819Z,23.77
2018-05-21T09:21:43.111Z,23.80
2018-05-21T09:24:12.465Z,23.77
2018-05-21T09:26:40.834Z,23.79
2018-05-21T09:29:09.196Z,23.85
2018-05-21T09:31:37.587Z,23.91
2018-05-21T09:34:06.290Z,23.96
2018-05-21T09:36:34.669Z,23.94
2018-05-21T09:39:03.030Z,23.97
2018-05-21T09:41:31.397Z,24.10
2018-05-21T09:43:59.884Z,24.13
2018-05-21T09:46:28.769Z,24.12
2018-05-21T09:48:57.161Z,23.99
2018-05-21T09:51:25.645Z,23.95
2018-05-21T09:53:54.184Z,23.97
2018-05-21T09:56:23.350Z,24.07
2018-05-21T09:58:51.750Z,24.19
2018-05-21T10:01:21.320Z,24.27
2018-05-21T10:03:49.783Z,24.29
2018-05-21T10:06:18.386Z,24.36
2018-05-21T10:08:46.925Z,24.40
2018-05-21T10:11:16.087Z,24.44
2018-05-21T10:13:44.595Z,24.39
2018-05-21T10:16:13.871Z,24.31
2018-05-21T10:18:42.462Z,24.35
2018-05-21T10:21:10.915Z,24.41
2018-05-21T10:23:39.227Z,24.40
2018-05-21T10:26:08.501Z,24.52
2018-05-21T10:28:37.685Z,24.65
2018-05-21T10:31:06.227Z,24.74
2018-05-21T10:33:35.483Z,24.82
2018-05-21T10:36:04.202Z,24.84
2018-05-21T10:38:33.418Z,24.82
2018-05-21T10:41:01.751Z,24.75
2018-05-21T10:43:30.196Z,24.82
2018-05-21T10:45:59.459Z,24.84
2018-05-21T10:48:28.796Z,24.93
2018-05-21T10:50:57.161Z,24.97
2018-05-21T10:53:25.856Z,24.98
2018-05-21T10:55:54.255Z,25.11
2018-05-21T10:58:22.637Z,25.16
2018-05-21T11:00:51.068Z,25.25
2018-05-21T11:03:19.417Z,25.30
2018-05-21T11:05:47.877Z,25.36
2018-05-21T11:08:16.233Z,25.40
2018-05-21T11:10:44.630Z,25.51
2018-05-21T11:13:13.337Z,25.61
2018-05-21T11:15:41.931Z,25.61
2018-05-21T11:18:10.453Z,25.74
2018-05-21T11:20:38.878Z,25.87
2018-05-21T11:23:07.327Z,25.99
2018-05-21T11:25:35.856Z,26.06
2018-05-21T11:28:04.151Z,26.06
2018-05-21T11:30:34.242Z,26.07
2018-05-21T11:33:04.116Z,26.06
2018-05-21T11:35:32.553Z,26.12
2018-05-21T11:38:01.132Z,26.31
2018-05-21T11:40:29.465Z,26.39
2018-05-21T11:42:57.964Z,26.47
2018-05-21T11:45:26.602Z,26.59
2018-05-21T11:47:55.013Z,26.67
2018-05-21T11:50:23.397Z,26.71
2018-05-21T11:52:51.738Z,26.84
2018-05-21T11:55:20.152Z,27.01
2018-05-21T11:57:48.586Z,26.88
2018-05-21T12:00:18.004Z,26.78
2018-05-21T12:02:46.880Z,26.78
2018-05-21T12:05:17.470Z,26.81
2018-05-21T12:07:46.046Z,26.89
2018-05-21T12:10:14.270Z,26.86
2018-05-21T12:12:42.643Z,26.94
2018-05-21T12:15:11.806Z,27.05
2018-05-21T12:17:40.547Z,27.09
2018-05-21T12:20:08.982Z,27.09
2018-05-21T12:22:38.104Z,27.06
2018-05-21T12:25:07.389Z,27.08
2018-05-21T12:27:36.592Z,27.14
2018-05-21T12:30:05.867Z,27.23
2018-05-21T12:32:34.216Z,27.32
2018-05-21T12:35:02.563Z,27.41
2018-05-21T12:37:30.947Z,27.49
2018-05-21T12:39:59.433Z,27.55
2018-05-21T12:42:28.108Z,27.53
2018-05-21T12:44:56.434Z,27.50
2018-05-21T12:47:25.078Z,27.55
2018-05-21T12:49:53.676Z,27.62
2018-05-21T12:52:22.031Z,27.74
2018-05-21T12:54:51.244Z,27.75
2018-05-21T12:57:19.718Z,27.81
2018-05-21T12:59:48.092Z,27.97
2018-05-21T13:02:16.538Z,28.07
2018-05-21T13:04:45.122Z,28.00
2018-05-21T13:07:13.751Z,28.02
2018-05-21T13:09:42.492Z,28.08
2018-05-21T13:12:10.953Z,28.06
2018-05-21T13:14:39.321Z,28.05
2018-05-21T13:17:07.733Z,28.13
2018-05-21T13:19:36.382Z,28.26
2018-05-21T13:22:04.853Z,28.22
2018-05-21T13:24:33.201Z,28.18
2018-05-21T13:27:01.736Z,28.13
2018-05-21T13:29:30.702Z,28.12
2018-05-21T13:31:59.117Z,28.13
2018-05-21T13:34:28.363Z,28.16
2018-05-21T13:36:58.809Z,28.06
2018-05-21T13:39:27.246Z,28.01
2018-05-21T13:41:56.467Z,28.13
2018-05-21T13:44:24.836Z,28.33
2018-05-21T13:46:53.243Z,28.66
2018-05-21T13:49:21.578Z,28.76
2018-05-21T13:51:50.828Z,28.75
2018-05-21T13:54:19.405Z,28.67
2018-05-21T13:56:47.939Z,28.72
2018-05-21T13:59:17.287Z,28.81
2018-05-21T14:01:45.735Z,28.83
2018-05-21T14:04:14.878Z,29.03
2018-05-21T14:06:43.253Z,29.07
2018-05-21T14:09:11.617Z,29.10
2018-05-21T14:11:40.079Z,29.18
2018-05-21T14:14:08.829Z,29.02
2018-05-21T14:16:37.343Z,28.88
2018-05-21T14:19:06.017Z,28.92
2018-05-21T14:21:34.475Z,28.99
2018-05-21T14:24:03.291Z,28.99
2018-05-21T14:26:31.781Z,29.05
2018-05-21T14:29:00.255Z,29.05
2018-05-21T14:31:28.938Z,28.96
2018-05-21T14:33:57.437Z,28.98
2018-05-21T14:36:25.842Z,28.86
2018-05-21T14:38:54.317Z,28.78
2018-05-21T14:41:22.787Z,28.81
2018-05-21T14:43:51.201Z,28.61
2018-05-21T14:46:19.838Z,28.59
2018-05-21T14:48:48.207Z,28.60
2018-05-21T14:51:16.712Z,28.59
2018-05-21T14:53:45.252Z,28.60
2018-05-21T14:56:14.567Z,28.53
2018-05-21T14:58:43.138Z,28.52
2018-05-21T15:01:11.518Z,28.47
2018-05-21T15:03:40.619Z,28.49
2018-05-21T15:06:08.970Z,28.40
2018-05-21T15:08:37.398Z,28.48
2018-05-21T15:11:05.774Z,28.52
2018-05-21T15:13:34.290Z,28.59
2018-05-21T15:16:02.644Z,28.56
2018-05-21T15:18:31.018Z,28.70
2018-05-21T15:20:59.400Z,28.70
2018-05-21T15:23:27.772Z,28.66
2018-05-21T15:25:56.257Z,28.67
2018-05-21T15:28:24.712Z,28.79
2018-05-21T15:30:53.338Z,28.73
2018-05-21T15:33:21.718Z,28.79
2018-05-21T15:35:50.358Z,29.02
2018-05-21T15:38:18.955Z,29.14
2018-05-21T15:40:47.323Z,29.17
2018-05-21T15:43:15.836Z,29.22
2018-05-21T15:45:44.214Z,29.25
2018-05-21T15:48:12.559Z,29.26
2018-05-21T15:50:41.903Z,29.11
2018-05-21T15:53:10.252Z,29.17
2018-05-21T15:55:38.618Z,29.27
2018-05-21T15:58:07.323Z,29.40
2018-05-21T16:00:35.881Z,29.21
2018-05-21T16:03:04.312Z,29.30
2018-05-21T16:05:32.697Z,29.15
2018-05-21T16:08:01.107Z,29.20
2018-05-21T16:10:29.538Z,29.34
2018-05-21T16:12:57.989Z,29.07
2018-05-21T16:15:26.445Z,28.73
2018-05-21T16:17:54.959Z,28.28
2018-05-21T16:20:23.306Z,28.04
2018-05-21T16:22:51.745Z,28.09
2018-05-21T16:25:20.099Z,28.35
2018-05-21T16:27:48.860Z,28.62
2018-05-21T16:30:17.287Z,28.52
2018-05-21T16:32:46.577Z,28.67
2018-05-21T16:35:14.928Z,29.29
2018-05-21T16:37:44.543Z,29.64
2018-05-21T16:40:12.997Z,29.77
2018-05-21T16:42:41.402Z,30.00
2018-05-21T16:45:10.205Z,30.53
2018-05-21T16:47:38.672Z,31.11
2018-05-21T16:50:07.072Z,31.24
2018-05-21T16:52:36.273Z,31.71
2018-05-21T16:55:05.416Z,31.22
2018-05-21T16:57:33.940Z,31.43
2018-05-21T17:00:02.384Z,32.14
2018-05-21T17:02:30.943Z,32.20
2018-05-21T17:05:00.147Z,32.10
2018-05-21T17:07:29.564Z,32.41
2018-05-21T17:09:57.994Z,32.84
2018-05-21T17:12:26.422Z,32.75
2018-05-21T17:14:57.549Z,32.90
2018-05-21T17:17:27.719Z,32.31
2018-05-21T17:19:58.585Z,31.93
2018-05-21T17:22:27.186Z,31.62
2018-05-21T17:24:55.568Z,31.40
2018-05-21T17:27:24.054Z,31.55
2018-05-21T17:29:52.584Z,31.71
2018-05-21T17:34:57.829Z,31.48
2018-05-21T17:37:26.979Z,31.17
2018-05-21T17:39:55.383Z,30.67
2018-05-21T17:42:24.155Z,29.97
2018-05-21T17:44:52.484Z,29.48
2018-05-21T17:47:20.882Z,28.86
2018-05-21T17:49:49.753Z,28.40
2018-05-21T17:52:18.221Z,28.02
2018-05-21T17:54:47.474Z,27.76
2018-05-21T17:57:16.012Z,27.53
2018-05-21T17:59:44.741Z,27.40
2018-05-21T18:02:13.142Z,27.11
2018-05-21T18:04:41.582Z,26.80
2018-05-21T18:07:10.062Z,26.60
2018-05-21T18:09:38.434Z,26.39
2018-05-21T18:12:07.215Z,26.30
2018-05-21T18:14:35.781Z,26.09
2018-05-21T18:17:04.991Z,26.01
2018-05-21T18:19:33.317Z,25.87
2018-05-21T18:22:01.837Z,25.85
2018-05-21T18:24:32.100Z,25.71
2018-05-21T18:27:00.547Z,25.75
2018-05-21T18:29:28.938Z,25.73
2018-05-21T18:31:57.324Z,25.68
2018-05-21T18:34:25.982Z,25.69
2018-05-21T18:36:54.539Z,25.57
2018-05-21T18:39:23.683Z,25.60
2018-05-21T18:41:52.049Z,25.50
2018-05-21T18:44:20.414Z,25.41
2018-05-21T18:46:49.764Z,25.30
2018-05-21T18:49:18.919Z,25.29
2018-05-21T18:51:47.325Z,25.26
2018-05-21T18:54:15.914Z,25.10
2018-05-21T18:56:45.775Z,25.07
2018-05-21T18:59:14.474Z,25.01
2018-05-21T19:01:42.944Z,25.07
2018-05-21T19:04:11.397Z,24.94
2018-05-21T19:06:40.002Z,24.80
2018-05-21T19:09:08.495Z,24.74
2018-05-21T19:11:36.898Z,24.61
2018-05-21T19:14:05.328Z,24.59
2018-05-21T19:16:33.680Z,24.66
2018-05-21T19:19:03.208Z,24.63
2018-05-21T19:21:31.602Z,24.62
2018-05-21T19:23:59.958Z,24.50
2018-05-21T19:26:28.349Z,24.48
2018-05-21T19:28:57.875Z,24.40
2018-05-21T19:31:26.315Z,24.41
2018-05-21T19:33:54.695Z,24.41
2018-05-21T19:36:23.073Z,24.35
2018-05-21T19:38:51.698Z,24.34
2018-05-21T19:41:20.358Z,24.32
2018-05-21T19:43:48.730Z,24.21
2018-05-21T19:46:17.216Z,24.26
2018-05-21T19:48:45.598Z,24.08
2018-05-21T19:51:14.010Z,24.14
2018-05-21T19:53:42.470Z,24.19
2018-05-21T19:56:11.612Z,24.06
2018-05-21T19:58:40.081Z,24.12
2018-05-21T20:01:08.435Z,24.05
2018-05-21T20:03:37.170Z,24.05
2018-05-21T20:06:05.758Z,23.84
2018-05-21T20:08:34.143Z,23.76
2018-05-21T20:11:02.516Z,23.74
2018-05-21T20:13:30.963Z,23.59
2018-05-21T20:16:00.383Z,23.56
2018-05-21T20:18:35.029Z,23.52
2018-05-21T20:21:03.412Z,23.42
2018-05-21T20:23:31.810Z,23.46
2018-05-21T20:26:00.205Z,23.42
2018-05-21T20:28:28.689Z,23.43
2018-05-21T20:30:57.986Z,23.29
2018-05-21T20:33:27.244Z,23.22
2018-05-21T20:35:55.747Z,23.27
2018-05-21T20:38:24.208Z,23.18
2018-05-21T20:40:52.655Z,23.19
2018-05-21T20:43:21.180Z,23.11
2018-05-21T20:45:49.739Z,23.15
2018-05-21T20:48:18.321Z,23.07
2018-05-21T20:50:46.808Z,23.12
2018-05-21T20:53:15.388Z,23.13
2018-05-21T20:55:43.887Z,23.10
2018-05-21T20:58:12.628Z,23.06
2018-05-21T21:00:41.083Z,23.01
2018-05-21T21:03:09.564Z,23.06
2018-05-21T21:05:37.982Z,23.04
2018-05-21T21:08:07.513Z,23.05
2018-05-21T21:10:36.037Z,23.04
2018-05-21T21:13:05.213Z,22.96
2018-05-21T21:15:33.600Z,22.96
2018-05-21T21:18:02.161Z,22.88
2018-05-21T21:20:30.892Z,22.84
2018-05-21T21:23:00.079Z,22.83
2018-05-21T21:25:29.236Z,22.77
2018-05-21T21:27:57.593Z,22.84
2018-05-21T21:30:25.992Z,22.81
2018-05-21T21:32:54.399Z,22.75
2018-05-21T21:35:22.915Z,22.75
2018-05-21T21:37:51.280Z,22.71
2018-05-21T21:40:21.594Z,22.48
2018-05-21T21:42:50.844Z,22.73
2018-05-21T21:45:19.480Z,22.65
2018-05-21T21:47:48.618Z,22.63
2018-05-21T21:50:17.186Z,22.56
2018-05-21T21:52:45.744Z,22.51
2018-05-21T21:55:14.959Z,22.51
2018-05-21T21:57:43.308Z,22.53
2018-05-21T22:00:12.416Z,22.54
2018-05-21T22:02:41.520Z,22.47
2018-05-21T22:05:10.779Z,22.43
2018-05-21T22:07:39.236Z,22.36
2018-05-21T22:10:07.700Z,22.40
2018-05-21T22:12:36.123Z,22.33
2018-05-21T22:15:07.238Z,22.21
2018-05-21T22:17:35.584Z,22.28
2018-05-21T22:20:04.760Z,22.28
2018-05-21T22:22:33.311Z,22.14
2018-05-21T22:25:01.779Z,22.16
2018-05-21T22:27:30.175Z,22.02
2018-05-21T22:29:58.597Z,21.91
2018-05-21T22:32:27.790Z,21.84
2018-05-21T22:34:56.894Z,21.85
2018-05-21T22:37:25.297Z,21.75
2018-05-21T22:39:53.779Z,21.77
2018-05-21T22:42:22.350Z,21.78
2018-05-21T22:44:50.666Z,21.81
2018-05-21T22:47:18.988Z,21.81
2018-05-21T22:49:48.300Z,21.86
2018-05-21T22:52:16.794Z,21.81
2018-05-21T22:54:45.509Z,21.79
2018-05-21T22:57:13.870Z,21.77
2018-05-21T22:59:42.390Z,21.64
2018-05-21T23:02:10.828Z,21.61
2018-05-21T23:04:39.327Z,21.60
2018-05-21T23:07:07.743Z,21.63
2018-05-21T23:09:36.146Z,21.66
2018-05-21T23:12:04.569Z,21.60
2018-05-21T23:14:33.349Z,21.62
2018-05-21T23:17:02.578Z,21.62
2018-05-21T23:19:31.739Z,21.68
2018-05-21T23:22:00.204Z,21.69
2018-05-21T23:24:28.495Z,21.63
2018-05-21T23:26:56.866Z,21.67
2018-05-21T23:29:25.165Z,21.61
2018-05-21T23:31:53.518Z,21.61
2018-05-21T23:34:21.844Z,21.53
2018-05-21T23:36:50.338Z,21.52
2018-05-21T23:39:18.697Z,21.50
2018-05-21T23:41:47.837Z,21.48
2018-05-21T23:44:18.144Z,21.39
2018-05-21T23:46:47.448Z,21.43
2018-05-21T23:49:16.584Z,21.39
2018-05-21T23:51:44.864Z,21.36
2018-05-21T23:54:13.204Z,21.30
2018-05-21T23:56:42.383Z,21.30
2018-05-21T23:59:11.519Z,21.37
